Terminal Aerodrome Forecast
Issued by NWS State College, PA

Home | Current Version | Previous Version | Text Only | Print | Product List | Glossary On
Versions: 1 2 3 4 5 6 7 8 9 10 11 12 13 14 15 16 17 18 19 20 21 22 23 24 25 26 27 28 29 30 31 32
000
FTUS41 KCTP 181129
TAFIPT
TAF
KIPT 181129Z 1812/1912 12006KT P6SM VCSH BKN035 OVC100
      TEMPO 1812/1814 5SM -SHRA BR OVC030
     FM181700 23007KT P6SM VCSH BKN040
     FM190400 27006KT P6SM SCT040=

USA.gov is the U.S. government's official web portal to all federal, state and local government web resources and services.